ZBAA/PEK METAR and TAF weather

Enter ICAO airport designator
Station Type Date Time Source
ZBAA METAR 2022/06/30 01:00 UTC NOAA

ZBAA 300100Z 17002MPS 120V220 CAVOK 27/22 Q1007 NOSIG


Station Type Date Time Source
ZBAA Decoded METAR 2022/06/30 01:00 UTC NOAA

Beijing, China (ZBAA) 39-56N 116-17E 55M
Jun 29, 2022 - 09:00 PM EDT / 2022.06.30 0100 UTC
Wind: from the S (170 degrees) at 4 MPH (4 KT) (direction variable):0
Visibility: greater than 7 mile(s):0
Temperature: 80 F (27 C)
Dew Point: 71 F (22 C)
Relative Humidity: 74%
Pressure (altimeter): 29.74 in. Hg (1007 hPa)
ob: ZBAA 300100Z 17002MPS 120V220 CAVOK 27/22 Q1007 NOSIG
cycle: 1

Station Type Date Time Source
ZBAA TAF 2022/06/29 18:03 UTC NOAA

TAF TAF ZBAA 291501Z 2918/3018 02004MPS 6000 NSC TX29/3007Z TN21/2921Z

Example: see airport list